sensor_id;sensor_type;location;lat;lon;timestamp;P1;durP1;ratioP1;P2;durP2;ratioP2
40717;SDS011;26405;51.850;-2.246;2023-07-31T00:00:33;3.40;;;1.88;;
40717;SDS011;26405;51.850;-2.246;2023-07-31T00:03:00;3.38;;;1.70;;
40717;SDS011;26405;51.850;-2.246;2023-07-31T00:05:25;4.25;;;1.77;;
40717;SDS011;26405;51.850;-2.246;2023-07-31T00:07:51;4.10;;;1.87;;
40717;SDS011;26405;51.850;-2.246;2023-07-31T00:10:16;3.00;;;1.80;;
40717;SDS011;26405;51.850;-2.246;2023-07-31T00:12:42;1.90;;;1.67;;
40717;SDS011;26405;51.850;-2.246;2023-07-31T00:15:07;4.40;;;1.67;;
40717;SDS011;26405;51.850;-2.246;2023-07-31T00:17:33;4.80;;;1.83;;
40717;SDS011;26405;51.850;-2.246;2023-07-31T00:19:58;2.00;;;1.50;;
40717;SDS011;26405;51.850;-2.246;2023-07-31T00:22:24;1.77;;;1.60;;
40717;SDS011;26405;51.850;-2.246;2023-07-31T00:24:49;2.10;;;1.45;;
40717;SDS011;26405;51.850;-2.246;2023-07-31T00:27:15;1.73;;;1.63;;
40717;SDS011;26405;51.850;-2.246;2023-07-31T00:29:41;3.00;;;1.70;;
40717;SDS011;26405;51.850;-2.246;2023-07-31T00:32:07;2.50;;;1.40;;
40717;SDS011;26405;51.850;-2.246;2023-07-31T00:34:32;3.03;;;1.20;;
40717;SDS011;26405;51.850;-2.246;2023-07-31T00:36:58;2.13;;;1.60;;
40717;SDS011;26405;51.850;-2.246;2023-07-31T00:39:23;2.70;;;1.40;;
40717;SDS011;26405;51.850;-2.246;2023-07-31T00:41:53;2.63;;;1.25;;
40717;SDS011;26405;51.850;-2.246;2023-07-31T00:44:18;1.95;;;1.48;;
40717;SDS011;26405;51.850;-2.246;2023-07-31T00:46:44;3.20;;;1.20;;
40717;SDS011;26405;51.850;-2.246;2023-07-31T00:49:09;1.50;;;1.40;;
40717;SDS011;26405;51.850;-2.246;2023-07-31T00:51:35;4.07;;;1.50;;
40717;SDS011;26405;51.850;-2.246;2023-07-31T00:54:00;1.45;;;1.35;;
40717;SDS011;26405;51.850;-2.246;2023-07-31T00:56:27;1.20;;;1.10;;
40717;SDS011;26405;51.850;-2.246;2023-07-31T00:58:53;2.60;;;1.17;;
40717;SDS011;26405;51.850;-2.246;2023-07-31T01:01:18;2.03;;;1.47;;
40717;SDS011;26405;51.850;-2.246;2023-07-31T01:03:44;2.10;;;1.40;;
40717;SDS011;26405;51.850;-2.246;2023-07-31T01:09:13;1.40;;;1.30;;
40717;SDS011;26405;51.850;-2.246;2023-07-31T01:11:52;1.20;;;1.15;;
40717;SDS011;26405;51.850;-2.246;2023-07-31T01:14:18;1.65;;;1.05;;
40717;SDS011;26405;51.850;-2.246;2023-07-31T01:16:44;2.33;;;1.10;;
40717;SDS011;26405;51.850;-2.246;2023-07-31T01:19:09;1.58;;;1.30;;
40717;SDS011;26405;51.850;-2.246;2023-07-31T01:21:41;1.10;;;1.10;;
40717;SDS011;26405;51.850;-2.246;2023-07-31T01:26:41;1.17;;;1.13;;
40717;SDS011;26405;51.850;-2.246;2023-07-31T01:29:26;2.78;;;1.15;;
40717;SDS011;26405;51.850;-2.246;2023-07-31T01:31:56;1.20;;;1.20;;
40717;SDS011;26405;51.850;-2.246;2023-07-31T01:34:22;2.38;;;0.90;;
40717;SDS011;26405;51.850;-2.246;2023-07-31T01:36:48;1.37;;;1.07;;
40717;SDS011;26405;51.850;-2.246;2023-07-31T01:39:13;1.23;;;1.17;;
40717;SDS011;26405;51.850;-2.246;2023-07-31T01:44:05;3.45;;;1.42;;
40717;SDS011;26405;51.850;-2.246;2023-07-31T01:46:31;2.00;;;1.05;;
40717;SDS011;26405;51.850;-2.246;2023-07-31T01:48:56;0.80;;;0.80;;
40717;SDS011;26405;51.850;-2.246;2023-07-31T01:51:22;1.13;;;1.02;;
40717;SDS011;26405;51.850;-2.246;2023-07-31T01:53:47;1.23;;;1.13;;
40717;SDS011;26405;51.850;-2.246;2023-07-31T01:56:12;2.60;;;1.00;;
40717;SDS011;26405;51.850;-2.246;2023-07-31T01:58:39;1.27;;;1.17;;
40717;SDS011;26405;51.850;-2.246;2023-07-31T02:01:05;0.80;;;0.80;;
40717;SDS011;26405;51.850;-2.246;2023-07-31T02:03:30;1.17;;;1.10;;
40717;SDS011;26405;51.850;-2.246;2023-07-31T02:05:55;1.17;;;1.00;;
40717;SDS011;26405;51.850;-2.246;2023-07-31T02:08:21;1.80;;;1.07;;
40717;SDS011;26405;51.850;-2.246;2023-07-31T02:10:47;3.60;;;1.00;;
40717;SDS011;26405;51.850;-2.246;2023-07-31T02:13:12;1.20;;;1.10;;
40717;SDS011;26405;51.850;-2.246;2023-07-31T02:15:38;1.90;;;0.98;;
40717;SDS011;26405;51.850;-2.246;2023-07-31T02:18:03;1.55;;;1.20;;
40717;SDS011;26405;51.850;-2.246;2023-07-31T02:20:30;0.95;;;0.85;;
40717;SDS011;26405;51.850;-2.246;2023-07-31T02:22:58;1.20;;;1.10;;
40717;SDS011;26405;51.850;-2.246;2023-07-31T02:25:23;2.07;;;1.53;;
40717;SDS011;26405;51.850;-2.246;2023-07-31T02:27:48;1.60;;;1.50;;
40717;SDS011;26405;51.850;-2.246;2023-07-31T02:30:14;2.40;;;1.00;;
40717;SDS011;26405;51.850;-2.246;2023-07-31T02:32:42;2.40;;;1.37;;
40717;SDS011;26405;51.850;-2.246;2023-07-31T02:35:07;2.97;;;1.40;;
40717;SDS011;26405;51.850;-2.246;2023-07-31T02:37:33;1.80;;;1.43;;
40717;SDS011;26405;51.850;-2.246;2023-07-31T02:39:59;5.30;;;1.80;;
40717;SDS011;26405;51.850;-2.246;2023-07-31T02:42:24;2.60;;;1.47;;
40717;SDS011;26405;51.850;-2.246;2023-07-31T02:44:51;2.70;;;1.33;;
40717;SDS011;26405;51.850;-2.246;2023-07-31T02:47:22;3.92;;;1.73;;
40717;SDS011;26405;51.850;-2.246;2023-07-31T02:49:47;4.37;;;1.80;;
40717;SDS011;26405;51.850;-2.246;2023-07-31T02:52:13;4.43;;;1.70;;
40717;SDS011;26405;51.850;-2.246;2023-07-31T02:54:39;5.83;;;1.87;;
40717;SDS011;26405;51.850;-2.246;2023-07-31T02:57:04;3.97;;;1.70;;
40717;SDS011;26405;51.850;-2.246;2023-07-31T02:59:29;5.40;;;1.93;;
40717;SDS011;26405;51.850;-2.246;2023-07-31T03:01:55;6.63;;;2.23;;
40717;SDS011;26405;51.850;-2.246;2023-07-31T03:04:20;4.68;;;2.00;;
40717;SDS011;26405;51.850;-2.246;2023-07-31T03:06:46;5.20;;;2.08;;
40717;SDS011;26405;51.850;-2.246;2023-07-31T03:09:11;4.72;;;1.98;;
40717;SDS011;26405;51.850;-2.246;2023-07-31T03:11:36;5.63;;;2.00;;
40717;SDS011;26405;51.850;-2.246;2023-07-31T03:14:05;5.18;;;2.13;;
40717;SDS011;26405;51.850;-2.246;2023-07-31T03:16:30;1.65;;;1.55;;
40717;SDS011;26405;51.850;-2.246;2023-07-31T03:18:55;4.80;;;2.17;;
40717;SDS011;26405;51.850;-2.246;2023-07-31T03:21:20;5.10;;;2.27;;
40717;SDS011;26405;51.850;-2.246;2023-07-31T03:23:46;3.90;;;2.10;;
40717;SDS011;26405;51.850;-2.246;2023-07-31T03:26:11;5.40;;;2.30;;
40717;SDS011;26405;51.850;-2.246;2023-07-31T03:28:36;5.20;;;2.03;;
40717;SDS011;26405;51.850;-2.246;2023-07-31T03:31:02;4.90;;;2.22;;
40717;SDS011;26405;51.850;-2.246;2023-07-31T03:33:27;7.27;;;2.53;;
40717;SDS011;26405;51.850;-2.246;2023-07-31T03:35:52;6.47;;;2.50;;
40717;SDS011;26405;51.850;-2.246;2023-07-31T03:38:20;6.57;;;2.63;;
40717;SDS011;26405;51.850;-2.246;2023-07-31T03:43:11;8.30;;;3.33;;
40717;SDS011;26405;51.850;-2.246;2023-07-31T03:45:36;10.57;;;3.85;;
40717;SDS011;26405;51.850;-2.246;2023-07-31T03:48:01;8.23;;;3.70;;
40717;SDS011;26405;51.850;-2.246;2023-07-31T03:50:27;7.43;;;3.58;;
40717;SDS011;26405;51.850;-2.246;2023-07-31T03:52:52;8.95;;;3.70;;
40717;SDS011;26405;51.850;-2.246;2023-07-31T03:55:17;5.60;;;3.30;;
40717;SDS011;26405;51.850;-2.246;2023-07-31T03:57:43;7.50;;;3.60;;
40717;SDS011;26405;51.850;-2.246;2023-07-31T04:00:08;8.07;;;3.40;;
40717;SDS011;26405;51.850;-2.246;2023-07-31T04:02:34;7.97;;;3.57;;
40717;SDS011;26405;51.850;-2.246;2023-07-31T04:04:59;7.97;;;3.73;;
40717;SDS011;26405;51.850;-2.246;2023-07-31T04:07:25;9.53;;;3.80;;
40717;SDS011;26405;51.850;-2.246;2023-07-31T04:09:50;7.70;;;3.43;;
40717;SDS011;26405;51.850;-2.246;2023-07-31T04:12:18;9.30;;;3.47;;
40717;SDS011;26405;51.850;-2.246;2023-07-31T04:14:43;8.73;;;3.80;;
40717;SDS011;26405;51.850;-2.246;2023-07-31T04:17:09;10.50;;;4.30;;
40717;SDS011;26405;51.850;-2.246;2023-07-31T04:19:34;8.07;;;4.03;;
40717;SDS011;26405;51.850;-2.246;2023-07-31T04:21:59;10.40;;;4.17;;
40717;SDS011;26405;51.850;-2.246;2023-07-31T04:24:25;12.40;;;3.97;;
40717;SDS011;26405;51.850;-2.246;2023-07-31T04:26:53;11.37;;;4.43;;
40717;SDS011;26405;51.850;-2.246;2023-07-31T04:29:18;8.65;;;4.00;;
40717;SDS011;26405;51.850;-2.246;2023-07-31T04:31:44;7.93;;;3.80;;
40717;SDS011;26405;51.850;-2.246;2023-07-31T04:34:09;9.23;;;3.93;;
40717;SDS011;26405;51.850;-2.246;2023-07-31T04:36:34;9.20;;;4.20;;
40717;SDS011;26405;51.850;-2.246;2023-07-31T04:39:00;9.10;;;4.50;;
40717;SDS011;26405;51.850;-2.246;2023-07-31T04:41:26;10.25;;;4.22;;
40717;SDS011;26405;51.850;-2.246;2023-07-31T04:43:51;8.17;;;4.00;;
40717;SDS011;26405;51.850;-2.246;2023-07-31T04:46:17;9.70;;;4.10;;
40717;SDS011;26405;51.850;-2.246;2023-07-31T04:48:42;8.97;;;4.33;;
40717;SDS011;26405;51.850;-2.246;2023-07-31T04:51:08;12.90;;;4.03;;
40717;SDS011;26405;51.850;-2.246;2023-07-31T04:53:34;8.32;;;3.70;;
40717;SDS011;26405;51.850;-2.246;2023-07-31T04:55:59;5.80;;;3.60;;
40717;SDS011;26405;51.850;-2.246;2023-07-31T04:58:25;8.63;;;3.87;;
40717;SDS011;26405;51.850;-2.246;2023-07-31T05:00:50;8.33;;;3.70;;
40717;SDS011;26405;51.850;-2.246;2023-07-31T05:03:15;9.17;;;3.33;;
40717;SDS011;26405;51.850;-2.246;2023-07-31T05:05:40;6.17;;;3.50;;
40717;SDS011;26405;51.850;-2.246;2023-07-31T05:08:06;9.23;;;4.03;;
40717;SDS011;26405;51.850;-2.246;2023-07-31T05:10:32;9.30;;;3.90;;
40717;SDS011;26405;51.850;-2.246;2023-07-31T05:12:57;8.73;;;4.10;;
40717;SDS011;26405;51.850;-2.246;2023-07-31T05:15:22;10.57;;;3.80;;
40717;SDS011;26405;51.850;-2.246;2023-07-31T05:17:48;9.17;;;4.03;;
40717;SDS011;26405;51.850;-2.246;2023-07-31T05:20:13;10.73;;;4.03;;
40717;SDS011;26405;51.850;-2.246;2023-07-31T05:22:40;8.57;;;4.00;;
40717;SDS011;26405;51.850;-2.246;2023-07-31T05:25:05;10.47;;;3.90;;
40717;SDS011;26405;51.850;-2.246;2023-07-31T05:27:32;10.98;;;4.13;;
40717;SDS011;26405;51.850;-2.246;2023-07-31T05:29:57;11.93;;;4.70;;
40717;SDS011;26405;51.850;-2.246;2023-07-31T05:32:23;7.67;;;3.90;;
40717;SDS011;26405;51.850;-2.246;2023-07-31T05:34:50;11.90;;;4.57;;
40717;SDS011;26405;51.850;-2.246;2023-07-31T05:37:15;9.52;;;4.22;;
40717;SDS011;26405;51.850;-2.246;2023-07-31T05:39:40;13.70;;;4.87;;
40717;SDS011;26405;51.850;-2.246;2023-07-31T05:42:06;12.37;;;4.67;;
40717;SDS011;26405;51.850;-2.246;2023-07-31T05:44:35;12.70;;;4.43;;
40717;SDS011;26405;51.850;-2.246;2023-07-31T05:47:23;12.60;;;4.90;;
40717;SDS011;26405;51.850;-2.246;2023-07-31T05:49:49;12.27;;;4.75;;
40717;SDS011;26405;51.850;-2.246;2023-07-31T05:52:17;11.23;;;4.53;;
40717;SDS011;26405;51.850;-2.246;2023-07-31T05:54:43;9.47;;;4.60;;
40717;SDS011;26405;51.850;-2.246;2023-07-31T05:57:08;9.87;;;4.40;;
40717;SDS011;26405;51.850;-2.246;2023-07-31T05:59:33;13.47;;;4.60;;
40717;SDS011;26405;51.850;-2.246;2023-07-31T06:01:59;10.03;;;4.20;;
40717;SDS011;26405;51.850;-2.246;2023-07-31T06:04:24;11.60;;;4.87;;
40717;SDS011;26405;51.850;-2.246;2023-07-31T06:06:50;10.73;;;4.35;;
40717;SDS011;26405;51.850;-2.246;2023-07-31T06:09:16;14.97;;;4.50;;
40717;SDS011;26405;51.850;-2.246;2023-07-31T06:11:41;14.20;;;4.90;;
40717;SDS011;26405;51.850;-2.246;2023-07-31T06:14:06;13.63;;;4.90;;
40717;SDS011;26405;51.850;-2.246;2023-07-31T06:16:32;14.67;;;5.13;;
40717;SDS011;26405;51.850;-2.246;2023-07-31T06:18:57;14.93;;;5.07;;
40717;SDS011;26405;51.850;-2.246;2023-07-31T06:21:22;14.23;;;5.10;;
40717;SDS011;26405;51.850;-2.246;2023-07-31T06:23:48;13.87;;;4.70;;
40717;SDS011;26405;51.850;-2.246;2023-07-31T06:26:13;15.23;;;4.90;;
40717;SDS011;26405;51.850;-2.246;2023-07-31T06:28:38;14.17;;;4.77;;
40717;SDS011;26405;51.850;-2.246;2023-07-31T06:31:04;15.40;;;5.17;;
40717;SDS011;26405;51.850;-2.246;2023-07-31T06:33:29;14.60;;;5.10;;
40717;SDS011;26405;51.850;-2.246;2023-07-31T06:35:54;14.50;;;5.20;;
40717;SDS011;26405;51.850;-2.246;2023-07-31T06:38:22;19.40;;;5.90;;
40717;SDS011;26405;51.850;-2.246;2023-07-31T06:40:48;12.43;;;4.90;;
40717;SDS011;26405;51.850;-2.246;2023-07-31T06:43:14;18.57;;;5.77;;
40717;SDS011;26405;51.850;-2.246;2023-07-31T06:45:39;20.67;;;5.83;;
40717;SDS011;26405;51.850;-2.246;2023-07-31T06:48:08;14.10;;;4.87;;
40717;SDS011;26405;51.850;-2.246;2023-07-31T06:50:33;18.85;;;5.63;;
40717;SDS011;26405;51.850;-2.246;2023-07-31T06:52:59;13.47;;;5.10;;
40717;SDS011;26405;51.850;-2.246;2023-07-31T06:55:25;17.13;;;5.43;;
40717;SDS011;26405;51.850;-2.246;2023-07-31T06:58:06;15.15;;;4.95;;
40717;SDS011;26405;51.850;-2.246;2023-07-31T07:00:31;16.40;;;5.00;;
40717;SDS011;26405;51.850;-2.246;2023-07-31T07:02:57;16.07;;;5.17;;
40717;SDS011;26405;51.850;-2.246;2023-07-31T07:05:22;11.40;;;4.80;;
40717;SDS011;26405;51.850;-2.246;2023-07-31T07:07:57;13.73;;;4.68;;
40717;SDS011;26405;51.850;-2.246;2023-07-31T07:10:25;13.93;;;5.20;;
40717;SDS011;26405;51.850;-2.246;2023-07-31T07:12:51;13.38;;;4.82;;
40717;SDS011;26405;51.850;-2.246;2023-07-31T07:15:16;13.70;;;4.93;;
40717;SDS011;26405;51.850;-2.246;2023-07-31T07:17:42;17.57;;;5.30;;
40717;SDS011;26405;51.850;-2.246;2023-07-31T07:20:09;14.52;;;4.90;;
40717;SDS011;26405;51.850;-2.246;2023-07-31T07:22:34;12.57;;;4.87;;
40717;SDS011;26405;51.850;-2.246;2023-07-31T07:25:03;13.47;;;5.07;;
40717;SDS011;26405;51.850;-2.246;2023-07-31T07:27:29;12.48;;;4.53;;
40717;SDS011;26405;51.850;-2.246;2023-07-31T07:29:55;10.67;;;4.63;;
40717;SDS011;26405;51.850;-2.246;2023-07-31T07:32:20;11.60;;;4.70;;
40717;SDS011;26405;51.850;-2.246;2023-07-31T07:34:47;11.63;;;4.03;;
40717;SDS011;26405;51.850;-2.246;2023-07-31T07:37:17;10.48;;;4.35;;
40717;SDS011;26405;51.850;-2.246;2023-07-31T07:39:44;11.95;;;4.32;;
40717;SDS011;26405;51.850;-2.246;2023-07-31T07:44:36;13.00;;;4.70;;
40717;SDS011;26405;51.850;-2.246;2023-07-31T07:47:01;14.00;;;4.35;;
40717;SDS011;26405;51.850;-2.246;2023-07-31T07:49:27;11.67;;;3.93;;
40717;SDS011;26405;51.850;-2.246;2023-07-31T07:51:52;15.87;;;4.67;;
40717;SDS011;26405;51.850;-2.246;2023-07-31T07:54:17;14.27;;;4.67;;
40717;SDS011;26405;51.850;-2.246;2023-07-31T07:56:42;12.37;;;4.30;;
40717;SDS011;26405;51.850;-2.246;2023-07-31T07:59:10;12.87;;;4.10;;
40717;SDS011;26405;51.850;-2.246;2023-07-31T08:01:36;15.48;;;4.97;;
40717;SDS011;26405;51.850;-2.246;2023-07-31T08:04:01;18.70;;;5.43;;
40717;SDS011;26405;51.850;-2.246;2023-07-31T08:06:26;15.93;;;4.77;;
40717;SDS011;26405;51.850;-2.246;2023-07-31T08:08:51;16.37;;;5.10;;
40717;SDS011;26405;51.850;-2.246;2023-07-31T08:11:17;12.63;;;4.53;;
40717;SDS011;26405;51.850;-2.246;2023-07-31T08:13:43;16.65;;;5.07;;
40717;SDS011;26405;51.850;-2.246;2023-07-31T08:16:09;13.27;;;4.60;;
40717;SDS011;26405;51.850;-2.246;2023-07-31T08:18:35;17.17;;;5.23;;
40717;SDS011;26405;51.850;-2.246;2023-07-31T08:21:03;12.63;;;4.07;;
40717;SDS011;26405;51.850;-2.246;2023-07-31T08:23:29;10.45;;;4.00;;
40717;SDS011;26405;51.850;-2.246;2023-07-31T08:25:55;12.27;;;4.50;;
40717;SDS011;26405;51.850;-2.246;2023-07-31T08:28:21;12.03;;;3.77;;
40717;SDS011;26405;51.850;-2.246;2023-07-31T08:33:12;15.07;;;4.73;;
40717;SDS011;26405;51.850;-2.246;2023-07-31T08:35:37;14.33;;;4.50;;
40717;SDS011;26405;51.850;-2.246;2023-07-31T08:38:03;11.50;;;4.00;;
40717;SDS011;26405;51.850;-2.246;2023-07-31T08:40:28;15.13;;;4.33;;
40717;SDS011;26405;51.850;-2.246;2023-07-31T08:42:54;17.53;;;4.30;;
40717;SDS011;26405;51.850;-2.246;2023-07-31T08:45:21;14.13;;;4.20;;
40717;SDS011;26405;51.850;-2.246;2023-07-31T08:47:47;12.83;;;4.00;;
40717;SDS011;26405;51.850;-2.246;2023-07-31T08:50:14;13.88;;;4.60;;
40717;SDS011;26405;51.850;-2.246;2023-07-31T08:52:40;14.00;;;4.50;;
40717;SDS011;26405;51.850;-2.246;2023-07-31T08:55:06;14.40;;;4.47;;
40717;SDS011;26405;51.850;-2.246;2023-07-31T08:57:31;14.03;;;4.23;;
40717;SDS011;26405;51.850;-2.246;2023-07-31T08:59:57;13.23;;;4.63;;
40717;SDS011;26405;51.850;-2.246;2023-07-31T09:02:22;11.10;;;4.20;;
40717;SDS011;26405;51.850;-2.246;2023-07-31T09:04:49;14.48;;;4.30;;
40717;SDS011;26405;51.850;-2.246;2023-07-31T09:07:15;14.77;;;4.37;;
40717;SDS011;26405;51.850;-2.246;2023-07-31T09:09:41;10.83;;;4.23;;
40717;SDS011;26405;51.850;-2.246;2023-07-31T09:12:06;14.07;;;4.30;;
40717;SDS011;26405;51.850;-2.246;2023-07-31T09:14:31;11.37;;;4.17;;
40717;SDS011;26405;51.850;-2.246;2023-07-31T09:16:59;14.20;;;3.90;;
40717;SDS011;26405;51.850;-2.246;2023-07-31T09:19:35;13.63;;;3.90;;
40717;SDS011;26405;51.850;-2.246;2023-07-31T09:22:02;12.68;;;4.15;;
40717;SDS011;26405;51.850;-2.246;2023-07-31T09:24:28;14.93;;;4.83;;
40717;SDS011;26405;51.850;-2.246;2023-07-31T09:26:55;13.50;;;4.53;;
40717;SDS011;26405;51.850;-2.246;2023-07-31T09:29:21;14.93;;;4.93;;
40717;SDS011;26405;51.850;-2.246;2023-07-31T09:31:46;15.37;;;5.13;;
40717;SDS011;26405;51.850;-2.246;2023-07-31T09:34:12;17.43;;;5.30;;
40717;SDS011;26405;51.850;-2.246;2023-07-31T09:36:41;12.93;;;4.38;;
40717;SDS011;26405;51.850;-2.246;2023-07-31T09:39:08;15.68;;;5.00;;
40717;SDS011;26405;51.850;-2.246;2023-07-31T09:41:42;16.70;;;5.03;;
40717;SDS011;26405;51.850;-2.246;2023-07-31T09:44:08;18.40;;;5.32;;
40717;SDS011;26405;51.850;-2.246;2023-07-31T09:46:34;16.03;;;5.50;;
40717;SDS011;26405;51.850;-2.246;2023-07-31T09:51:30;16.10;;;5.30;;
40717;SDS011;26405;51.850;-2.246;2023-07-31T09:53:56;15.52;;;5.63;;
40717;SDS011;26405;51.850;-2.246;2023-07-31T09:56:21;19.17;;;6.00;;
40717;SDS011;26405;51.850;-2.246;2023-07-31T09:58:48;17.95;;;5.30;;
40717;SDS011;26405;51.850;-2.246;2023-07-31T10:01:13;20.00;;;6.00;;
40717;SDS011;26405;51.850;-2.246;2023-07-31T10:03:40;18.77;;;6.40;;
40717;SDS011;26405;51.850;-2.246;2023-07-31T10:08:31;17.55;;;6.57;;
40717;SDS011;26405;51.850;-2.246;2023-07-31T10:11:00;19.42;;;6.40;;
40717;SDS011;26405;51.850;-2.246;2023-07-31T10:13:27;17.35;;;5.82;;
40717;SDS011;26405;51.850;-2.246;2023-07-31T10:15:53;18.73;;;6.27;;
40717;SDS011;26405;51.850;-2.246;2023-07-31T10:18:18;16.83;;;5.83;;
40717;SDS011;26405;51.850;-2.246;2023-07-31T10:20:46;18.77;;;6.10;;
40717;SDS011;26405;51.850;-2.246;2023-07-31T10:23:12;16.55;;;5.90;;
40717;SDS011;26405;51.850;-2.246;2023-07-31T10:25:38;18.73;;;6.00;;
40717;SDS011;26405;51.850;-2.246;2023-07-31T10:28:04;19.20;;;6.47;;
40717;SDS011;26405;51.850;-2.246;2023-07-31T10:30:29;18.73;;;6.10;;
40717;SDS011;26405;51.850;-2.246;2023-07-31T10:32:56;15.50;;;5.85;;
40717;SDS011;26405;51.850;-2.246;2023-07-31T10:35:23;17.17;;;6.13;;
40717;SDS011;26405;51.850;-2.246;2023-07-31T10:37:49;16.83;;;6.03;;
40717;SDS011;26405;51.850;-2.246;2023-07-31T10:40:18;16.47;;;6.10;;
40717;SDS011;26405;51.850;-2.246;2023-07-31T10:42:46;19.65;;;6.88;;
40717;SDS011;26405;51.850;-2.246;2023-07-31T10:45:13;19.13;;;5.82;;
40717;SDS011;26405;51.850;-2.246;2023-07-31T10:47:46;19.77;;;6.73;;
40717;SDS011;26405;51.850;-2.246;2023-07-31T10:50:18;13.48;;;5.50;;
40717;SDS011;26405;51.850;-2.246;2023-07-31T10:52:46;16.30;;;6.00;;
40717;SDS011;26405;51.850;-2.246;2023-07-31T10:57:49;17.65;;;6.80;;
40717;SDS011;26405;51.850;-2.246;2023-07-31T11:00:25;17.50;;;6.07;;
40717;SDS011;26405;51.850;-2.246;2023-07-31T11:03:06;20.40;;;7.07;;
40717;SDS011;26405;51.850;-2.246;2023-07-31T11:08:21;17.15;;;6.63;;
40717;SDS011;26405;51.850;-2.246;2023-07-31T11:10:49;18.75;;;6.53;;
40717;SDS011;26405;51.850;-2.246;2023-07-31T11:13:14;17.90;;;6.43;;
40717;SDS011;26405;51.850;-2.246;2023-07-31T11:18:47;15.75;;;5.68;;
40717;SDS011;26405;51.850;-2.246;2023-07-31T11:21:21;20.95;;;6.18;;
40717;SDS011;26405;51.850;-2.246;2023-07-31T11:23:48;20.10;;;6.15;;
40717;SDS011;26405;51.850;-2.246;2023-07-31T11:26:13;16.13;;;5.70;;
40717;SDS011;26405;51.850;-2.246;2023-07-31T11:28:40;15.63;;;5.40;;
40717;SDS011;26405;51.850;-2.246;2023-07-31T11:31:09;20.48;;;6.63;;
40717;SDS011;26405;51.850;-2.246;2023-07-31T11:33:36;18.80;;;6.30;;
40717;SDS011;26405;51.850;-2.246;2023-07-31T11:36:01;19.63;;;6.15;;
40717;SDS011;26405;51.850;-2.246;2023-07-31T11:38:27;22.13;;;6.27;;
40717;SDS011;26405;51.850;-2.246;2023-07-31T11:40:53;16.67;;;5.75;;
40717;SDS011;26405;51.850;-2.246;2023-07-31T11:43:19;13.53;;;4.97;;
40717;SDS011;26405;51.850;-2.246;2023-07-31T11:45:49;19.15;;;5.55;;
40717;SDS011;26405;51.850;-2.246;2023-07-31T11:48:18;18.67;;;5.78;;
40717;SDS011;26405;51.850;-2.246;2023-07-31T11:50:43;20.33;;;5.97;;
40717;SDS011;26405;51.850;-2.246;2023-07-31T11:53:11;17.95;;;5.40;;
40717;SDS011;26405;51.850;-2.246;2023-07-31T11:55:36;16.77;;;5.67;;
40717;SDS011;26405;51.850;-2.246;2023-07-31T11:58:02;16.67;;;5.37;;
40717;SDS011;26405;51.850;-2.246;2023-07-31T12:00:27;21.00;;;5.97;;
40717;SDS011;26405;51.850;-2.246;2023-07-31T12:02:53;17.63;;;5.37;;
40717;SDS011;26405;51.850;-2.246;2023-07-31T12:05:18;19.23;;;5.70;;
40717;SDS011;26405;51.850;-2.246;2023-07-31T12:08:02;17.40;;;5.67;;
40717;SDS011;26405;51.850;-2.246;2023-07-31T12:10:32;16.58;;;5.95;;
40717;SDS011;26405;51.850;-2.246;2023-07-31T12:15:30;19.35;;;5.78;;
40717;SDS011;26405;51.850;-2.246;2023-07-31T12:17:57;20.48;;;5.93;;
40717;SDS011;26405;51.850;-2.246;2023-07-31T12:20:24;20.67;;;6.47;;
40717;SDS011;26405;51.850;-2.246;2023-07-31T12:22:52;21.45;;;6.10;;
40717;SDS011;26405;51.850;-2.246;2023-07-31T12:25:21;18.63;;;6.10;;
40717;SDS011;26405;51.850;-2.246;2023-07-31T12:30:32;20.13;;;5.63;;
40717;SDS011;26405;51.850;-2.246;2023-07-31T12:33:18;17.52;;;5.78;;
40717;SDS011;26405;51.850;-2.246;2023-07-31T12:35:44;17.80;;;5.68;;
40717;SDS011;26405;51.850;-2.246;2023-07-31T12:38:11;22.27;;;5.95;;
40717;SDS011;26405;51.850;-2.246;2023-07-31T12:40:40;19.77;;;5.97;;
40717;SDS011;26405;51.850;-2.246;2023-07-31T12:43:07;19.25;;;6.18;;
40717;SDS011;26405;51.850;-2.246;2023-07-31T12:45:33;18.33;;;6.03;;
40717;SDS011;26405;51.850;-2.246;2023-07-31T12:47:59;21.23;;;5.63;;
40717;SDS011;26405;51.850;-2.246;2023-07-31T12:50:24;17.23;;;5.90;;
40717;SDS011;26405;51.850;-2.246;2023-07-31T12:52:50;20.02;;;5.53;;
40717;SDS011;26405;51.850;-2.246;2023-07-31T12:55:15;19.67;;;5.93;;
40717;SDS011;26405;51.850;-2.246;2023-07-31T12:57:41;19.90;;;6.07;;
40717;SDS011;26405;51.850;-2.246;2023-07-31T13:00:10;20.07;;;6.03;;
40717;SDS011;26405;51.850;-2.246;2023-07-31T13:02:35;18.30;;;5.88;;
40717;SDS011;26405;51.850;-2.246;2023-07-31T13:05:01;17.97;;;6.43;;
40717;SDS011;26405;51.850;-2.246;2023-07-31T13:09:52;16.50;;;5.20;;
40717;SDS011;26405;51.850;-2.246;2023-07-31T13:12:18;15.53;;;5.23;;
40717;SDS011;26405;51.850;-2.246;2023-07-31T13:14:43;18.87;;;6.23;;
40717;SDS011;26405;51.850;-2.246;2023-07-31T13:17:09;21.27;;;6.53;;
40717;SDS011;26405;51.850;-2.246;2023-07-31T13:19:34;14.93;;;5.50;;
40717;SDS011;26405;51.850;-2.246;2023-07-31T13:22:07;21.13;;;6.13;;
40717;SDS011;26405;51.850;-2.246;2023-07-31T13:24:33;20.87;;;6.50;;
40717;SDS011;26405;51.850;-2.246;2023-07-31T13:26:58;19.58;;;6.78;;
40717;SDS011;26405;51.850;-2.246;2023-07-31T13:29:23;17.98;;;5.72;;
40717;SDS011;26405;51.850;-2.246;2023-07-31T13:31:49;17.30;;;5.90;;
40717;SDS011;26405;51.850;-2.246;2023-07-31T13:34:14;19.00;;;6.63;;
40717;SDS011;26405;51.850;-2.246;2023-07-31T13:36:39;17.90;;;5.93;;
40717;SDS011;26405;51.850;-2.246;2023-07-31T13:39:05;18.97;;;6.27;;
40717;SDS011;26405;51.850;-2.246;2023-07-31T13:41:30;21.17;;;6.20;;
40717;SDS011;26405;51.850;-2.246;2023-07-31T13:43:56;19.87;;;6.10;;
40717;SDS011;26405;51.850;-2.246;2023-07-31T13:46:21;18.73;;;6.67;;
40717;SDS011;26405;51.850;-2.246;2023-07-31T13:48:46;20.03;;;5.90;;
40717;SDS011;26405;51.850;-2.246;2023-07-31T13:51:12;22.33;;;6.63;;
40717;SDS011;26405;51.850;-2.246;2023-07-31T13:53:38;18.83;;;6.20;;
40717;SDS011;26405;51.850;-2.246;2023-07-31T13:56:11;22.13;;;6.40;;
40717;SDS011;26405;51.850;-2.246;2023-07-31T13:58:36;19.87;;;6.43;;
40717;SDS011;26405;51.850;-2.246;2023-07-31T14:01:05;21.42;;;6.43;;
40717;SDS011;26405;51.850;-2.246;2023-07-31T14:03:31;20.13;;;6.07;;
40717;SDS011;26405;51.850;-2.246;2023-07-31T14:05:56;20.43;;;5.77;;
40717;SDS011;26405;51.850;-2.246;2023-07-31T14:08:22;17.03;;;5.97;;
40717;SDS011;26405;51.850;-2.246;2023-07-31T14:10:48;19.70;;;6.80;;
40717;SDS011;26405;51.850;-2.246;2023-07-31T14:13:14;20.40;;;6.27;;
40717;SDS011;26405;51.850;-2.246;2023-07-31T14:15:41;20.27;;;6.90;;
40717;SDS011;26405;51.850;-2.246;2023-07-31T14:18:10;21.42;;;6.22;;
40717;SDS011;26405;51.850;-2.246;2023-07-31T14:20:36;21.53;;;6.70;;
40717;SDS011;26405;51.850;-2.246;2023-07-31T14:23:04;22.43;;;6.77;;
40717;SDS011;26405;51.850;-2.246;2023-07-31T14:25:30;20.63;;;6.60;;
40717;SDS011;26405;51.850;-2.246;2023-07-31T14:27:55;15.93;;;6.03;;
40717;SDS011;26405;51.850;-2.246;2023-07-31T14:30:21;17.70;;;5.80;;
40717;SDS011;26405;51.850;-2.246;2023-07-31T14:32:50;18.90;;;6.13;;
40717;SDS011;26405;51.850;-2.246;2023-07-31T14:35:15;17.60;;;5.90;;
40717;SDS011;26405;51.850;-2.246;2023-07-31T14:37:44;18.23;;;5.90;;
40717;SDS011;26405;51.850;-2.246;2023-07-31T14:40:10;18.08;;;5.60;;
40717;SDS011;26405;51.850;-2.246;2023-07-31T14:42:36;19.73;;;6.35;;
40717;SDS011;26405;51.850;-2.246;2023-07-31T14:45:01;19.40;;;6.13;;
40717;SDS011;26405;51.850;-2.246;2023-07-31T14:47:27;16.77;;;5.37;;
40717;SDS011;26405;51.850;-2.246;2023-07-31T14:49:53;17.87;;;5.97;;
40717;SDS011;26405;51.850;-2.246;2023-07-31T14:52:22;16.30;;;6.03;;
40717;SDS011;26405;51.850;-2.246;2023-07-31T14:54:48;17.65;;;5.82;;
40717;SDS011;26405;51.850;-2.246;2023-07-31T14:57:19;18.50;;;5.95;;